Terminal Aerodrome Forecast
Issued by NWS

Home | Current Version | Previous Version | Text Only | Print | Product List | Glossary Off
Versions: 1 2 3 4 5 6 7 8 9 10 11 12 13 14 15 16 17

256
FTUS43 KMPX 250540
TAFRWF
TAF
KRWF 250540Z 2506/2606 14009KT P6SM BKN250
     FM251200 11004KT 5SM -SHRA VCTS OVC050CB
      TEMPO 2514/2516 -TSRA
     FM251700 13008KT P6SM OVC035
     FM252000 17007KT P6SM SCT250=

USA.gov is the U.S. government's official web portal to all federal, state and local government web resources and services.